createdAt,value
2022-11-16T00:00:05.639Z,102019.06
2022-11-16T00:02:32.713Z,102022.59
2022-11-16T00:04:59.404Z,102017.31
2022-11-16T00:07:26.165Z,102019.91
2022-11-16T00:09:52.737Z,102020.78
2022-11-16T00:12:19.276Z,102011.16
2022-11-16T00:14:45.992Z,102011.16
2022-11-16T00:17:12.588Z,102012.03
2022-11-16T00:19:39.186Z,102014.63
2022-11-16T00:22:05.749Z,102017.28
2022-11-16T00:24:32.351Z,102011.97
2022-11-16T00:26:58.919Z,102011.09
2022-11-16T00:29:26.846Z,102006.72
2022-11-16T00:31:54.222Z,101990.06
2022-11-16T00:34:22.040Z,101996.22
2022-11-16T00:36:48.878Z,102005.88
2022-11-16T00:39:16.863Z,102009.38
2022-11-16T00:41:44.217Z,101995.34
2022-11-16T00:44:11.939Z,102012.88
2022-11-16T00:46:39.020Z,102018.16
2022-11-16T00:49:06.684Z,102011.13
2022-11-16T00:51:34.834Z,102009.38
2022-11-16T00:54:03.891Z,102012.00
2022-11-16T00:56:33.415Z,102014.63
2022-11-16T00:59:00.212Z,102016.38
2022-11-16T01:01:26.926Z,102020.81
2022-11-16T01:03:53.515Z,102012.88
2022-11-16T01:06:23.549Z,102014.63
2022-11-16T01:08:52.882Z,102021.66
2022-11-16T01:11:38.549Z,102014.63
2022-11-16T01:14:08.390Z,102021.66
2022-11-16T01:16:38.106Z,102018.16
2022-11-16T01:19:05.689Z,102016.41
2022-11-16T01:21:32.420Z,102019.91
2022-11-16T01:24:03.538Z,102010.25
2022-11-16T01:26:30.163Z,102012.88
2022-11-16T01:28:58.651Z,102011.09
2022-11-16T01:31:25.280Z,102019.00
2022-11-16T01:33:51.819Z,102011.13
2022-11-16T01:36:18.448Z,102009.38
2022-11-16T01:38:46.498Z,102012.88
2022-11-16T01:41:20.926Z,102003.22
2022-11-16T01:43:52.184Z,102001.47
2022-11-16T01:46:18.881Z,102004.09
2022-11-16T01:48:49.146Z,102016.38
2022-11-16T01:51:16.127Z,102012.84
2022-11-16T01:53:43.467Z,102009.31
2022-11-16T01:56:12.782Z,102006.69
2022-11-16T01:58:42.159Z,102012.78
2022-11-16T02:01:08.711Z,102005.78
2022-11-16T02:03:38.288Z,102005.78
2022-11-16T02:06:26.181Z,102011.09
2022-11-16T02:09:43.621Z,102004.94
2022-11-16T02:12:38.053Z,102005.84
2022-11-16T02:15:25.905Z,102004.94
2022-11-16T02:18:11.239Z,102000.56
2022-11-16T02:21:02.181Z,102009.38
2022-11-16T02:23:43.321Z,102007.59
2022-11-16T02:26:43.702Z,101999.69
2022-11-16T02:29:22.057Z,101996.16
2022-11-16T02:32:18.719Z,102000.56
2022-11-16T02:34:50.569Z,102006.69
2022-11-16T02:37:23.327Z,102000.56
2022-11-16T02:39:55.833Z,101996.16
2022-11-16T02:42:28.670Z,102007.53
2022-11-16T02:44:59.932Z,101997.91
2022-11-16T02:47:31.782Z,101994.38
2022-11-16T02:50:04.500Z,101997.84
2022-11-16T02:52:31.117Z,101997.88
2022-11-16T02:55:00.575Z,101989.97
2022-11-16T02:57:51.547Z,101991.72
2022-11-16T03:00:35.668Z,101988.22
2022-11-16T03:03:11.905Z,101989.94
2022-11-16T03:05:46.544Z,101984.69
2022-11-16T03:08:15.987Z,101988.19
2022-11-16T03:11:08.645Z,101996.09
2022-11-16T03:13:37.496Z,101979.44
2022-11-16T03:16:11.504Z,101979.44
2022-11-16T03:18:39.688Z,101976.78
2022-11-16T03:21:20.224Z,101967.13
2022-11-16T03:23:47.036Z,101975.03
2022-11-16T03:26:18.893Z,101970.63
2022-11-16T03:29:14.723Z,101968.00
2022-11-16T03:31:52.492Z,101970.63
2022-11-16T03:34:22.664Z,101974.16
2022-11-16T03:36:52.864Z,101976.78
2022-11-16T03:39:24.134Z,101968.00
2022-11-16T03:41:51.944Z,101966.22
2022-11-16T03:44:20.217Z,101969.75
2022-11-16T03:46:47.771Z,101967.13
2022-11-16T03:49:14.511Z,101965.34
2022-11-16T03:51:41.211Z,101965.34
2022-11-16T03:54:07.868Z,101970.56
2022-11-16T03:56:34.438Z,101971.47
2022-11-16T03:59:01.110Z,101972.31
2022-11-16T04:01:27.727Z,101970.53
2022-11-16T04:03:54.387Z,101968.78
2022-11-16T04:06:39.622Z,101961.75
2022-11-16T04:09:24.857Z,101965.28
2022-11-16T04:12:10.228Z,101963.53
2022-11-16T04:14:55.635Z,101968.78
2022-11-16T04:17:42.226Z,101967.03
2022-11-16T04:20:28.821Z,101968.78
2022-11-16T04:23:33.166Z,101964.38
2022-11-16T04:26:00.183Z,101966.16
2022-11-16T04:28:31.435Z,101966.16
2022-11-16T04:31:19.506Z,101958.25
2022-11-16T04:34:04.505Z,101946.00
2022-11-16T04:36:49.590Z,101947.72
2022-11-16T04:39:16.148Z,101956.53
2022-11-16T04:42:04.636Z,101951.31
2022-11-16T04:44:53.962Z,101954.81
2022-11-16T04:47:20.504Z,101959.19
2022-11-16T04:49:47.060Z,101962.66
2022-11-16T04:52:13.657Z,101955.66
2022-11-16T04:54:40.210Z,101948.66
2022-11-16T04:57:06.860Z,101947.78
2022-11-16T04:59:33.400Z,101941.66
2022-11-16T05:02:09.074Z,101946.00
2022-11-16T05:04:40.444Z,101939.88
2022-11-16T05:07:11.201Z,101940.75
2022-11-16T05:09:43.243Z,101946.88
2022-11-16T05:12:21.007Z,101937.25
2022-11-16T05:14:47.884Z,101946.88
2022-11-16T05:17:15.815Z,101944.28
2022-11-16T05:20:01.086Z,101946.03
2022-11-16T05:22:27.717Z,101942.50
2022-11-16T05:24:54.727Z,101939.88
2022-11-16T05:27:23.256Z,101934.63
2022-11-16T05:29:50.168Z,101939.88
2022-11-16T05:32:18.164Z,101937.25
2022-11-16T05:34:45.232Z,101934.63
2022-11-16T05:37:12.330Z,101946.00
2022-11-16T05:39:39.075Z,101952.13
2022-11-16T05:42:06.740Z,101955.63
2022-11-16T05:44:33.671Z,101951.22
2022-11-16T05:47:00.771Z,101952.97
2022-11-16T05:49:27.605Z,101944.25
2022-11-16T05:51:54.408Z,101947.75
2022-11-16T05:54:24.783Z,101939.88
2022-11-16T05:56:52.533Z,101938.13
2022-11-16T05:59:23.436Z,101939.00
2022-11-16T06:01:51.036Z,101944.22
2022-11-16T06:04:24.112Z,101945.97
2022-11-16T06:06:50.827Z,101948.59
2022-11-16T06:09:17.434Z,101949.50
2022-11-16T06:11:44.169Z,101960.88
2022-11-16T06:14:10.772Z,101957.38
2022-11-16T06:16:37.349Z,101958.22
2022-11-16T06:19:03.961Z,101962.63
2022-11-16T06:21:30.703Z,101961.75
2022-11-16T06:23:57.274Z,101968.75
2022-11-16T06:26:23.818Z,101961.72
2022-11-16T06:28:50.386Z,101967.00
2022-11-16T06:31:17.069Z,101965.25
2022-11-16T06:33:43.696Z,101965.25
2022-11-16T06:36:12.006Z,101967.88
2022-11-16T06:38:38.820Z,101970.53
2022-11-16T06:41:05.781Z,101978.44
2022-11-16T06:43:32.688Z,101970.53
2022-11-16T06:45:59.355Z,101974.88
2022-11-16T06:48:28.736Z,101976.66
2022-11-16T06:50:55.336Z,101978.41
2022-11-16T06:53:27.533Z,101975.78
2022-11-16T06:55:55.952Z,101978.41
2022-11-16T06:58:22.536Z,101980.16
2022-11-16T07:00:49.139Z,101969.63
2022-11-16T07:03:15.720Z,101970.50
2022-11-16T07:05:42.336Z,101959.97
2022-11-16T07:08:09.221Z,101968.72
2022-11-16T07:10:36.924Z,101963.47
2022-11-16T07:13:03.996Z,101964.34
2022-11-16T07:15:34.025Z,101959.09
2022-11-16T07:18:07.660Z,101951.22
2022-11-16T07:20:34.952Z,101956.44
2022-11-16T07:23:04.468Z,101957.31
2022-11-16T07:25:33.342Z,101952.06
2022-11-16T07:28:00.060Z,101959.97
2022-11-16T07:30:27.313Z,101956.44
2022-11-16T07:32:58.902Z,101952.06
2022-11-16T07:35:25.722Z,101952.06
2022-11-16T07:37:52.307Z,101949.44
2022-11-16T07:40:19.303Z,101946.81
2022-11-16T07:42:46.009Z,101945.94
2022-11-16T07:45:12.619Z,101938.91
2022-11-16T07:47:39.396Z,101943.28
2022-11-16T07:50:06.908Z,101953.81
2022-11-16T07:52:33.558Z,101950.31
2022-11-16T07:55:01.707Z,101949.41
2022-11-16T07:57:28.894Z,101959.03
2022-11-16T07:59:55.475Z,101966.09
2022-11-16T08:02:22.150Z,101966.94
2022-11-16T08:04:48.751Z,101972.19
2022-11-16T08:07:16.669Z,101975.69
2022-11-16T08:09:43.631Z,101969.53
2022-11-16T08:12:10.252Z,101968.66
2022-11-16T08:14:39.319Z,101965.13
2022-11-16T08:17:07.289Z,101967.75
2022-11-16T08:19:34.591Z,101961.59
2022-11-16T08:22:01.223Z,101961.59
2022-11-16T08:24:28.123Z,101949.34
2022-11-16T08:26:54.688Z,101960.75
2022-11-16T08:29:21.252Z,101958.16
2022-11-16T08:31:47.791Z,101955.56
2022-11-16T08:34:14.339Z,101955.53
2022-11-16T08:36:40.899Z,101955.53
2022-11-16T08:39:07.544Z,101959.03
2022-11-16T08:41:35.936Z,101951.19
2022-11-16T08:44:08.088Z,101951.16
2022-11-16T08:46:39.300Z,101954.66
2022-11-16T08:49:11.511Z,101952.00
2022-11-16T08:51:38.148Z,101957.28
2022-11-16T08:54:05.307Z,101959.03
2022-11-16T08:56:32.829Z,101959.00
2022-11-16T08:58:59.697Z,101959.88
2022-11-16T09:01:28.923Z,101959.03
2022-11-16T09:03:56.363Z,101954.66
2022-11-16T09:06:24.689Z,101965.16
2022-11-16T09:08:51.538Z,101967.78
2022-11-16T09:11:21.856Z,101966.91
2022-11-16T09:13:50.540Z,101962.53
2022-11-16T09:16:20.727Z,101971.31
2022-11-16T09:18:48.976Z,101966.94
2022-11-16T09:21:24.063Z,101972.19
2022-11-16T09:23:51.087Z,101980.97
2022-11-16T09:26:21.296Z,101980.09
2022-11-16T09:28:55.238Z,101981.84
2022-11-16T09:31:23.830Z,101973.09
2022-11-16T09:33:50.771Z,101972.22
2022-11-16T09:36:17.600Z,101976.63
2022-11-16T09:41:44.210Z,101983.66
2022-11-16T09:44:48.447Z,101988.91
2022-11-16T09:47:19.696Z,101978.41
2022-11-16T09:49:56.820Z,101979.28
2022-11-16T09:52:31.583Z,101985.44
2022-11-16T09:55:02.761Z,101980.16
2022-11-16T09:57:36.463Z,101979.31
2022-11-16T10:00:17.405Z,101976.72
2022-11-16T10:03:04.061Z,101975.84
2022-11-16T10:05:38.855Z,101982.00
2022-11-16T10:08:31.779Z,101988.16
2022-11-16T10:11:21.121Z,101982.00
2022-11-16T10:14:09.080Z,101986.41
2022-11-16T10:16:46.297Z,101980.31
2022-11-16T10:19:43.885Z,101983.78
2022-11-16T10:22:29.288Z,101972.41
2022-11-16T10:25:15.063Z,101984.66
2022-11-16T10:28:16.100Z,101981.16
2022-11-16T10:31:18.084Z,101977.66
2022-11-16T10:33:48.730Z,101975.88
2022-11-16T10:36:16.670Z,101974.13
2022-11-16T10:38:44.970Z,101977.63
2022-11-16T10:41:43.632Z,101975.03
2022-11-16T10:44:37.700Z,101972.38
2022-11-16T10:47:18.948Z,101967.09
2022-11-16T10:50:01.048Z,101971.53
2022-11-16T10:52:27.951Z,101966.28
2022-11-16T10:54:54.645Z,101968.06
2022-11-16T10:57:23.804Z,101972.47
2022-11-16T10:59:55.523Z,101969.81
2022-11-16T11:02:25.159Z,101977.72
2022-11-16T11:05:20.996Z,101975.97
2022-11-16T11:07:59.925Z,101972.44
2022-11-16T11:10:28.709Z,101970.69
2022-11-16T11:13:08.094Z,101970.72
2022-11-16T11:15:34.769Z,101965.47
2022-11-16T11:18:17.356Z,101969.81
2022-11-16T11:20:47.829Z,101961.94
2022-11-16T11:23:23.276Z,101966.31
2022-11-16T11:26:00.716Z,101965.47
2022-11-16T11:28:34.796Z,101959.31
2022-11-16T11:31:16.607Z,101961.94
2022-11-16T11:33:51.117Z,101955.78
2022-11-16T11:36:23.781Z,101951.44
2022-11-16T11:39:00.224Z,101948.78
2022-11-16T11:41:39.434Z,101951.41
2022-11-16T11:44:15.791Z,101949.66
2022-11-16T11:47:42.234Z,101944.44
2022-11-16T11:49:43.076Z,101942.66
2022-11-16T11:52:19.364Z,101950.56
2022-11-16T11:54:47.863Z,101947.09
2022-11-16T11:57:22.074Z,101942.69
2022-11-16T11:59:53.161Z,101954.09
2022-11-16T12:02:41.442Z,101956.72
2022-11-16T12:05:28.312Z,101955.84
2022-11-16T12:08:26.048Z,101952.34
2022-11-16T12:11:38.631Z,101948.84
2022-11-16T12:14:30.123Z,101934.81
2022-11-16T12:17:33.280Z,101937.47
2022-11-16T12:20:02.543Z,101938.34
2022-11-16T12:22:50.011Z,101935.72
2022-11-16T12:25:29.013Z,101932.22
2022-11-16T12:28:11.211Z,101936.59
2022-11-16T12:31:13.984Z,101935.72
2022-11-16T12:33:56.100Z,101939.25
2022-11-16T12:36:49.297Z,101923.44
2022-11-16T12:39:24.549Z,101930.47
2022-11-16T12:42:00.644Z,101925.22
2022-11-16T12:44:48.816Z,101919.09
2022-11-16T12:47:43.237Z,101924.38
2022-11-16T12:50:20.661Z,101914.72
2022-11-16T12:52:56.462Z,101922.59
2022-11-16T12:55:38.499Z,101922.59
2022-11-16T12:58:19.592Z,101928.78
2022-11-16T13:01:06.427Z,101922.59
2022-11-16T13:03:49.212Z,101922.59
2022-11-16T13:06:26.152Z,101922.63
2022-11-16T13:08:58.796Z,101916.44
2022-11-16T13:11:33.952Z,101917.34
2022-11-16T13:14:07.555Z,101919.06
2022-11-16T13:16:34.857Z,101914.69
2022-11-16T13:19:05.629Z,101919.09
2022-11-16T13:21:41.726Z,101918.22
2022-11-16T13:24:24.948Z,101914.69
2022-11-16T13:26:56.461Z,101919.97
2022-11-16T13:29:30.379Z,101918.22
2022-11-16T13:31:59.983Z,101915.56
2022-11-16T13:34:31.893Z,101916.47
2022-11-16T13:36:58.721Z,101921.72
2022-11-16T13:39:50.320Z,101919.06
2022-11-16T13:42:17.077Z,101911.19
2022-11-16T13:44:47.460Z,101916.44
2022-11-16T13:47:28.629Z,101908.53
2022-11-16T13:49:59.628Z,101912.94
2022-11-16T13:53:36.477Z,101911.19
2022-11-16T13:55:40.727Z,101920.81
2022-11-16T13:58:11.627Z,101914.66
2022-11-16T14:00:41.575Z,101914.66
2022-11-16T14:03:17.257Z,101914.66
2022-11-16T14:05:48.649Z,101905.00
2022-11-16T14:08:24.448Z,101909.38
2022-11-16T14:10:51.016Z,101906.78
2022-11-16T14:13:40.499Z,101902.34
2022-11-16T14:16:16.623Z,101903.22
2022-11-16T14:18:45.085Z,101896.22
2022-11-16T14:21:20.522Z,101901.47
2022-11-16T14:23:56.576Z,101902.34
2022-11-16T14:26:38.001Z,101894.47
2022-11-16T14:29:16.871Z,101896.22
2022-11-16T14:31:58.253Z,101897.09
2022-11-16T14:34:32.633Z,101894.47
2022-11-16T14:37:00.528Z,101892.72
2022-11-16T14:39:38.849Z,101895.34
2022-11-16T14:42:18.722Z,101897.97
2022-11-16T14:44:46.584Z,101899.69
2022-11-16T14:47:23.557Z,101893.56
2022-11-16T14:49:50.897Z,101890.94
2022-11-16T14:52:21.739Z,101887.44
2022-11-16T14:55:02.291Z,101897.06
2022-11-16T14:57:29.637Z,101888.31
2022-11-16T15:00:18.866Z,101877.81
2022-11-16T15:02:55.300Z,101875.19
2022-11-16T15:05:32.773Z,101878.66
2022-11-16T15:08:01.380Z,101880.44
2022-11-16T15:10:29.219Z,101872.53
2022-11-16T15:12:57.432Z,101876.94
2022-11-16T15:15:27.349Z,101883.94
2022-11-16T15:17:59.693Z,101880.41
2022-11-16T15:20:31.501Z,101881.28
2022-11-16T15:22:59.776Z,101889.19
2022-11-16T15:25:28.409Z,101886.53
2022-11-16T15:27:57.457Z,101882.13
2022-11-16T15:30:30.021Z,101884.75
2022-11-16T15:32:56.946Z,101882.09
2022-11-16T15:35:34.743Z,101880.34
2022-11-16T15:38:14.945Z,101879.41
2022-11-16T15:40:46.779Z,101877.66
2022-11-16T15:43:14.272Z,101882.00
2022-11-16T15:45:43.095Z,101881.13
2022-11-16T15:48:17.370Z,101878.47
2022-11-16T15:51:03.051Z,101874.13
2022-11-16T15:53:38.408Z,101872.34
2022-11-16T15:56:16.982Z,101871.44
2022-11-16T15:58:44.524Z,101871.47
2022-11-16T16:01:13.619Z,101869.69
2022-11-16T16:03:50.008Z,101874.97
2022-11-16T16:06:56.805Z,101873.19
2022-11-16T16:09:29.355Z,101867.94
2022-11-16T16:12:20.597Z,101872.28
2022-11-16T16:14:49.244Z,101874.03
2022-11-16T16:17:27.115Z,101873.19
2022-11-16T16:20:02.479Z,101880.22
2022-11-16T16:22:37.993Z,101874.94
2022-11-16T16:25:06.516Z,101872.31
2022-11-16T16:27:39.954Z,101867.91
2022-11-16T16:30:08.622Z,101880.19
2022-11-16T16:32:40.997Z,101877.56
2022-11-16T16:35:16.734Z,101874.06
2022-11-16T16:37:44.015Z,101872.28
2022-11-16T16:40:11.464Z,101872.28
2022-11-16T16:42:47.982Z,101875.81
2022-11-16T16:45:43.472Z,101879.34
2022-11-16T16:48:12.650Z,101887.25
2022-11-16T16:50:39.976Z,101882.81
2022-11-16T16:53:06.953Z,101882.81
2022-11-16T16:55:37.731Z,101881.06
2022-11-16T16:58:05.252Z,101874.03
2022-11-16T17:00:32.240Z,101873.16
2022-11-16T17:02:59.294Z,101869.59
2022-11-16T17:05:28.903Z,101877.50
2022-11-16T17:07:56.496Z,101871.34
2022-11-16T17:10:23.758Z,101868.66
2022-11-16T17:12:54.250Z,101872.16
2022-11-16T17:15:21.664Z,101875.69
2022-11-16T17:17:48.979Z,101883.56
2022-11-16T17:20:16.912Z,101875.66
2022-11-16T17:22:44.587Z,101876.56
2022-11-16T17:25:12.121Z,101879.16
2022-11-16T17:27:39.387Z,101885.31
2022-11-16T17:30:07.394Z,101877.44
2022-11-16T17:32:34.557Z,101881.81
2022-11-16T17:35:01.667Z,101876.56
2022-11-16T17:37:28.818Z,101872.16
2022-11-16T17:39:56.034Z,101868.66
2022-11-16T17:42:23.177Z,101880.03
2022-11-16T17:44:50.338Z,101874.78
2022-11-16T17:47:17.533Z,101874.75
2022-11-16T17:49:46.148Z,101876.50
2022-11-16T17:52:13.291Z,101881.75
2022-11-16T17:54:40.437Z,101873.84
2022-11-16T17:57:07.667Z,101869.47
2022-11-16T17:59:35.006Z,101871.22
2022-11-16T18:02:02.545Z,101878.22
2022-11-16T18:04:29.685Z,101869.44
2022-11-16T18:06:56.947Z,101872.94
2022-11-16T18:09:24.196Z,101866.81
2022-11-16T18:11:51.315Z,101869.44
2022-11-16T18:14:18.449Z,101862.38
2022-11-16T18:16:47.914Z,101868.53
2022-11-16T18:19:19.712Z,101869.38
2022-11-16T18:21:48.799Z,101864.97
2022-11-16T18:24:16.435Z,101867.59
2022-11-16T18:26:43.618Z,101865.81
2022-11-16T18:29:15.418Z,101862.31
2022-11-16T18:31:42.731Z,101866.69
2022-11-16T18:34:13.910Z,101871.91
2022-11-16T18:36:41.162Z,101874.56
2022-11-16T18:39:08.320Z,101870.16
2022-11-16T18:41:35.562Z,101857.03
2022-11-16T18:44:02.719Z,101860.50
2022-11-16T18:46:33.320Z,101863.13
2022-11-16T18:49:00.798Z,101861.38
2022-11-16T18:51:28.996Z,101867.50
2022-11-16T18:53:56.361Z,101853.50
2022-11-16T18:56:24.099Z,101864.03
2022-11-16T18:58:52.488Z,101862.25
2022-11-16T19:01:22.097Z,101866.63
2022-11-16T19:03:49.009Z,101873.63
2022-11-16T19:06:17.771Z,101874.50
2022-11-16T19:08:50.203Z,101871.84
2022-11-16T19:11:20.757Z,101870.09
2022-11-16T19:13:53.177Z,101868.31
2022-11-16T19:16:19.810Z,101867.41
2022-11-16T19:18:46.445Z,101872.63
2022-11-16T19:21:15.439Z,101875.25
2022-11-16T19:23:47.424Z,101875.25
2022-11-16T19:26:16.049Z,101872.59
2022-11-16T19:28:44.592Z,101866.47
2022-11-16T19:31:12.426Z,101876.97
2022-11-16T19:33:39.398Z,101870.81
2022-11-16T19:36:14.862Z,101864.69
2022-11-16T19:38:42.248Z,101866.41
2022-11-16T19:41:11.002Z,101862.88
2022-11-16T19:43:37.848Z,101868.16
2022-11-16T19:46:12.834Z,101863.75
2022-11-16T19:48:39.726Z,101871.69
2022-11-16T19:51:11.836Z,101868.22
2022-11-16T19:53:39.527Z,101862.06
2022-11-16T19:56:08.747Z,101868.22
2022-11-16T19:58:37.039Z,101864.72
2022-11-16T20:01:26.261Z,101863.84
2022-11-16T20:03:53.294Z,101859.47
2022-11-16T20:06:22.723Z,101858.59
2022-11-16T20:08:51.230Z,101855.97
2022-11-16T20:11:20.487Z,101857.72
2022-11-16T20:13:48.608Z,101863.84
2022-11-16T20:16:16.040Z,101860.31
2022-11-16T20:18:44.114Z,101870.81
2022-11-16T20:21:23.544Z,101860.31
2022-11-16T20:23:53.899Z,101862.03
2022-11-16T20:26:21.699Z,101857.69
2022-11-16T20:28:52.311Z,101862.03
2022-11-16T20:31:24.559Z,101861.16
2022-11-16T20:33:56.151Z,101855.94
2022-11-16T20:36:24.819Z,101859.41
2022-11-16T20:38:52.173Z,101854.16
2022-11-16T20:41:29.712Z,101848.00
2022-11-16T20:43:58.466Z,101843.63
2022-11-16T20:46:28.088Z,101840.97
2022-11-16T20:48:57.092Z,101846.22
2022-11-16T20:51:23.833Z,101845.38
2022-11-16T20:53:52.003Z,101844.47
2022-11-16T20:56:20.052Z,101848.84
2022-11-16T20:58:48.030Z,101842.72
2022-11-16T21:01:17.832Z,101845.34
2022-11-16T21:03:44.821Z,101837.44
2022-11-16T21:06:13.545Z,101837.41
2022-11-16T21:08:40.958Z,101833.91
2022-11-16T21:11:22.712Z,101829.53
2022-11-16T21:14:07.793Z,101836.56
2022-11-16T21:16:34.802Z,101837.41
2022-11-16T21:19:02.150Z,101840.03
2022-11-16T21:21:29.054Z,101840.91
2022-11-16T21:23:55.872Z,101841.75
2022-11-16T21:26:27.612Z,101845.25
2022-11-16T21:28:54.711Z,101851.38
2022-11-16T21:31:25.671Z,101842.59
2022-11-16T21:33:53.960Z,101853.94
2022-11-16T21:36:23.652Z,101851.28
2022-11-16T21:38:51.160Z,101849.53
2022-11-16T21:41:19.532Z,101859.09
2022-11-16T21:43:46.647Z,101848.59
2022-11-16T21:46:16.320Z,101859.91
2022-11-16T21:48:43.413Z,101858.13
2022-11-16T21:51:12.731Z,101844.97
2022-11-16T21:53:39.692Z,101846.72
2022-11-16T21:56:07.897Z,101851.97
2022-11-16T21:58:34.582Z,101855.44
2022-11-16T22:01:02.328Z,101851.94
2022-11-16T22:03:31.040Z,101844.94
2022-11-16T22:06:18.570Z,101851.06
2022-11-16T22:08:46.273Z,101841.41
2022-11-16T22:11:13.489Z,101854.56
2022-11-16T22:13:40.365Z,101850.19
2022-11-16T22:16:08.817Z,101844.06
2022-11-16T22:18:35.607Z,101851.94
2022-11-16T22:21:03.115Z,101851.94
2022-11-16T22:23:29.847Z,101856.31
2022-11-16T22:26:06.857Z,101844.94
2022-11-16T22:28:34.235Z,101842.31
2022-11-16T22:31:07.539Z,101844.94
2022-11-16T22:33:35.471Z,101849.28
2022-11-16T22:36:02.905Z,101855.41
2022-11-16T22:38:29.483Z,101846.66
2022-11-16T22:40:57.053Z,101846.63
2022-11-16T22:43:26.907Z,101847.41
2022-11-16T22:46:01.176Z,101843.00
2022-11-16T22:48:35.197Z,101844.72
2022-11-16T22:51:06.823Z,101843.84
2022-11-16T22:53:34.477Z,101848.16
2022-11-16T22:56:09.216Z,101851.56
2022-11-16T22:58:37.441Z,101849.78
2022-11-16T23:01:05.689Z,101857.66
2022-11-16T23:03:32.452Z,101856.72
2022-11-16T23:05:59.856Z,101861.09
2022-11-16T23:08:27.075Z,101855.81
2022-11-16T23:11:24.196Z,101857.53
2022-11-16T23:14:10.557Z,101857.53
2022-11-16T23:16:37.796Z,101845.22
2022-11-16T23:19:24.609Z,101845.16
2022-11-16T23:22:09.659Z,101846.03
2022-11-16T23:24:54.568Z,101847.78
2022-11-16T23:27:30.428Z,101841.63
2022-11-16T23:30:12.093Z,101835.56
2022-11-16T23:32:39.782Z,101834.69
2022-11-16T23:35:06.775Z,101834.69
2022-11-16T23:37:33.514Z,101830.31
2022-11-16T23:40:00.192Z,101825.06
2022-11-16T23:42:45.804Z,101823.38
2022-11-16T23:45:15.597Z,101815.50
2022-11-16T23:47:42.155Z,101817.28
2022-11-16T23:50:09.157Z,101821.66
2022-11-16T23:52:35.932Z,101817.31
2022-11-16T23:55:02.524Z,101808.56
2022-11-16T23:57:29.105Z,101817.38
2022-11-16T23:59:55.637Z,101801.63
